createdAt,value
2019-04-03T00:00:38.754Z,12.60
2019-04-03T00:03:06.911Z,12.60
2019-04-03T00:05:35.464Z,12.60
2019-04-03T00:08:06.441Z,12.50
2019-04-03T00:10:38.150Z,12.60
2019-04-03T00:13:06.291Z,12.60
2019-04-03T00:15:34.891Z,12.60
2019-04-03T00:18:03.040Z,12.60
2019-04-03T00:20:31.287Z,12.60
2019-04-03T00:22:59.556Z,12.60
2019-04-03T00:25:28.070Z,12.40
2019-04-03T00:27:56.235Z,12.40
2019-04-03T00:30:24.746Z,12.40
2019-04-03T00:32:53.563Z,12.30
2019-04-03T00:35:23.511Z,12.30
2019-04-03T00:37:53.617Z,12.20
2019-04-03T00:40:22.756Z,12.20
2019-04-03T00:42:54.097Z,12.10
2019-04-03T00:45:24.150Z,12.00
2019-04-03T00:47:52.281Z,12.10
2019-04-03T00:50:20.362Z,12.10
2019-04-03T00:52:49.735Z,12.10
2019-04-03T00:55:17.992Z,12.10
2019-04-03T00:57:46.299Z,12.10
2019-04-03T01:00:15.801Z,12.10
2019-04-03T01:02:43.968Z,12.10
2019-04-03T01:05:13.139Z,12.10
2019-04-03T01:07:41.716Z,12.10
2019-04-03T01:10:10.293Z,12.10
2019-04-03T01:12:39.364Z,12.10
2019-04-03T01:15:08.087Z,12.10
2019-04-03T01:20:07.169Z,12.10
2019-04-03T01:22:37.386Z,12.10
2019-04-03T01:25:08.387Z,12.00
2019-04-03T01:27:36.729Z,12.00
2019-04-03T01:30:06.217Z,12.00
2019-04-03T01:32:34.330Z,12.10
2019-04-03T01:35:02.868Z,12.10
2019-04-03T01:37:31.361Z,12.20
2019-04-03T01:39:59.762Z,12.20
2019-04-03T01:42:28.381Z,12.10
2019-04-03T01:45:15.915Z,12.10
2019-04-03T01:47:44.343Z,12.00
2019-04-03T01:50:12.439Z,12.00
2019-04-03T01:52:43.117Z,11.80
2019-04-03T01:55:11.290Z,11.70
2019-04-03T01:57:39.697Z,11.50
2019-04-03T02:02:38.718Z,11.80
2019-04-03T02:05:08.387Z,11.40
2019-04-03T02:10:11.779Z,11.10
2019-04-03T02:12:40.571Z,11.10
2019-04-03T02:15:08.777Z,10.90
2019-04-03T02:17:36.775Z,10.90
2019-04-03T02:20:05.480Z,10.90
2019-04-03T02:25:04.126Z,10.90
2019-04-03T02:32:30.413Z,11.10
2019-04-03T03:54:30.965Z,10.30
2019-04-03T03:59:27.563Z,10.10
2019-04-03T04:01:55.764Z,10.10
2019-04-03T04:04:24.213Z,10.20
2019-04-03T04:06:52.717Z,10.00
2019-04-03T04:09:21.277Z,9.80
2019-04-03T04:21:45.389Z,9.90
2019-04-03T04:24:15.554Z,9.80
2019-04-03T04:26:44.658Z,9.80
2019-04-03T04:31:44.305Z,9.80
2019-04-03T04:34:12.387Z,9.70
2019-04-03T04:49:05.735Z,9.70
2019-04-03T04:51:33.743Z,9.60
2019-04-03T04:54:03.222Z,9.60
2019-04-03T04:59:00.028Z,9.60
2019-04-03T05:01:28.996Z,9.50
2019-04-03T05:03:58.575Z,9.50
2019-04-03T05:06:28.651Z,9.50
2019-04-03T05:08:57.066Z,9.40
2019-04-03T05:11:25.016Z,9.30
2019-04-03T05:16:24.532Z,9.30
2019-04-03T05:18:52.653Z,9.30
2019-04-03T05:21:22.693Z,9.30
2019-04-03T05:23:51.599Z,9.20
2019-04-03T05:28:57.048Z,9.20
2019-04-03T05:31:20.306Z,9.10
2019-04-03T05:33:48.206Z,9.10
2019-04-03T05:36:17.769Z,9.10
2019-04-03T05:38:46.535Z,9.20
2019-04-03T05:43:44.572Z,9.10
2019-04-03T05:46:13.676Z,9.00
2019-04-03T05:53:39.344Z,9.30
2019-04-03T06:01:06.620Z,9.60
2019-04-03T06:03:40.764Z,9.60
2019-04-03T06:06:05.525Z,9.60
2019-04-03T06:08:35.223Z,9.70
2019-04-03T06:11:05.742Z,9.70
2019-04-03T06:13:33.412Z,9.80
2019-04-03T06:18:32.066Z,10.00
2019-04-03T06:26:00.782Z,10.10
2019-04-03T06:28:28.447Z,10.30
2019-04-03T06:35:54.143Z,10.60
2019-04-03T06:45:56.992Z,10.60
2019-04-03T06:50:54.373Z,10.80
2019-04-03T06:55:53.361Z,10.90
2019-04-03T06:58:21.345Z,10.80
2019-04-03T07:00:54.371Z,10.70
2019-04-03T07:03:23.725Z,11.10
2019-04-03T07:05:52.132Z,11.10
2019-04-03T07:08:30.673Z,11.30
2019-04-03T07:13:21.744Z,11.60
2019-04-03T07:15:49.832Z,11.70
2019-04-03T07:18:18.130Z,11.80
2019-04-03T07:20:46.355Z,11.80
2019-04-03T07:23:14.299Z,11.90
2019-04-03T07:25:43.152Z,11.80
2019-04-03T07:30:40.684Z,12.10
2019-04-03T07:33:08.883Z,12.30
2019-04-03T07:38:08.037Z,13.00
2019-04-03T07:40:35.987Z,12.90
2019-04-03T07:43:04.033Z,13.00
2019-04-03T07:45:33.025Z,13.60
2019-04-03T07:48:01.902Z,13.80
2019-04-03T07:52:58.891Z,13.90
2019-04-03T07:55:28.519Z,14.00
2019-04-03T07:57:57.718Z,14.00
2019-04-03T08:00:26.855Z,14.30
2019-04-03T08:02:55.742Z,15.00
2019-04-03T08:05:24.467Z,16.00
2019-04-03T08:10:20.941Z,17.80
2019-04-03T08:12:49.350Z,17.90
2019-04-03T08:15:17.650Z,15.70
2019-04-03T08:17:49.690Z,18.40
2019-04-03T08:20:20.607Z,17.80
2019-04-03T08:22:48.898Z,17.80
2019-04-03T08:25:18.933Z,16.90
2019-04-03T08:27:47.231Z,16.30
2019-04-03T08:30:16.058Z,16.20
2019-04-03T08:32:47.770Z,15.30
2019-04-03T08:35:22.100Z,14.90
2019-04-03T08:37:46.317Z,14.00
2019-04-03T08:40:14.488Z,13.80
2019-04-03T08:42:43.531Z,13.70
2019-04-03T08:45:12.634Z,13.50
2019-04-03T08:47:46.169Z,13.20
2019-04-03T08:50:13.408Z,13.20
2019-04-03T08:52:43.238Z,13.10
2019-04-03T08:55:14.047Z,13.00
2019-04-03T08:57:45.797Z,13.00
2019-04-03T09:00:14.255Z,13.00
2019-04-03T09:02:43.481Z,13.10
2019-04-03T09:05:14.122Z,13.10
2019-04-03T09:07:42.335Z,13.40
2019-04-03T09:10:12.255Z,13.50
2019-04-03T09:12:40.613Z,13.40
2019-04-03T09:15:11.332Z,13.50
2019-04-03T09:17:40.030Z,13.50
2019-04-03T09:20:09.065Z,13.50
2019-04-03T09:22:37.964Z,13.50
2019-04-03T09:25:13.414Z,13.60
2019-04-03T09:27:42.434Z,13.90
2019-04-03T09:30:15.437Z,13.80
2019-04-03T09:32:43.183Z,13.70
2019-04-03T09:35:15.319Z,13.80
2019-04-03T09:37:46.055Z,13.80
2019-04-03T09:40:16.452Z,13.90
2019-04-03T09:42:44.109Z,14.20
2019-04-03T09:45:13.024Z,14.30
2019-04-03T09:47:41.313Z,14.50
2019-04-03T09:50:09.926Z,14.50
2019-04-03T09:55:08.386Z,14.60
2019-04-03T09:57:36.652Z,14.90
2019-04-03T10:00:10.629Z,14.90
2019-04-03T10:02:38.949Z,14.90
2019-04-03T10:05:09.018Z,15.20
2019-04-03T10:07:37.476Z,16.80
2019-04-03T10:10:08.392Z,16.80
2019-04-03T10:12:36.875Z,16.50
2019-04-03T10:15:07.451Z,16.50
2019-04-03T10:17:38.585Z,16.10
2019-04-03T10:20:08.097Z,16.10
2019-04-03T10:22:37.453Z,16.30
2019-04-03T10:25:06.408Z,16.30
2019-04-03T10:27:34.994Z,16.10
2019-04-03T10:30:05.246Z,16.10
2019-04-03T10:32:34.487Z,15.60
2019-04-03T10:35:02.803Z,15.60
2019-04-03T10:37:31.206Z,15.50
2019-04-03T10:40:00.251Z,15.50
2019-04-03T10:42:30.607Z,16.20
2019-04-03T10:44:58.414Z,16.80
2019-04-03T10:47:39.760Z,18.20
2019-04-03T10:49:57.568Z,18.10
2019-04-03T10:52:25.471Z,18.10
2019-04-03T10:54:56.457Z,18.00
2019-04-03T10:57:24.236Z,17.80
2019-04-03T10:59:54.915Z,17.80
2019-04-03T11:02:22.624Z,17.70
2019-04-03T11:04:50.989Z,17.70
2019-04-03T11:07:19.100Z,17.50
2019-04-03T11:09:47.249Z,17.90
2019-04-03T11:12:16.981Z,17.70
2019-04-03T11:14:46.034Z,18.20
2019-04-03T11:17:15.984Z,19.20
2019-04-03T11:19:44.870Z,19.80
2019-04-03T11:22:14.189Z,19.60
2019-04-03T11:24:43.385Z,18.50
2019-04-03T11:27:12.441Z,18.00
2019-04-03T11:29:41.904Z,17.70
2019-04-03T11:32:10.819Z,17.50
2019-04-03T11:34:39.095Z,17.40
2019-04-03T11:37:07.384Z,17.30
2019-04-03T11:39:37.434Z,17.10
2019-04-03T11:42:05.933Z,17.20
2019-04-03T11:44:33.978Z,17.30
2019-04-03T11:47:02.590Z,17.90
2019-04-03T11:49:30.552Z,18.10
2019-04-03T11:52:01.062Z,18.10
2019-04-03T11:54:29.829Z,18.10
2019-04-03T11:56:58.700Z,18.50
2019-04-03T11:59:27.204Z,18.80
2019-04-03T12:01:56.404Z,18.80
2019-04-03T12:04:24.868Z,18.90
2019-04-03T12:06:53.230Z,18.80
2019-04-03T12:09:21.703Z,18.40
2019-04-03T12:11:50.782Z,18.10
2019-04-03T12:14:19.585Z,16.70
2019-04-03T12:16:48.164Z,15.80
2019-04-03T12:19:16.618Z,15.20
2019-04-03T12:21:45.616Z,14.80
2019-04-03T12:24:14.188Z,14.50
2019-04-03T12:26:44.300Z,15.50
2019-04-03T12:29:13.354Z,14.10
2019-04-03T12:31:42.608Z,14.10
2019-04-03T12:34:10.863Z,13.50
2019-04-03T12:36:38.799Z,13.10
2019-04-03T12:41:43.189Z,13.10
2019-04-03T12:46:41.802Z,12.20
2019-04-03T12:49:10.639Z,12.20
2019-04-03T12:51:38.696Z,12.20
2019-04-03T12:54:07.335Z,12.10
2019-04-03T12:56:35.414Z,11.90
2019-04-03T12:59:03.667Z,11.90
2019-04-03T13:01:33.173Z,11.80
2019-04-03T13:04:01.540Z,11.90
2019-04-03T13:06:30.272Z,12.10
2019-04-03T13:09:00.592Z,12.30
2019-04-03T13:11:30.039Z,12.40
2019-04-03T13:14:00.784Z,12.60
2019-04-03T13:16:30.155Z,12.70
2019-04-03T13:18:58.563Z,12.40
2019-04-03T13:21:26.651Z,12.10
2019-04-03T13:23:55.264Z,12.10
2019-04-03T13:26:24.391Z,12.10
2019-04-03T13:28:53.363Z,12.10
2019-04-03T13:31:21.796Z,12.20
2019-04-03T13:33:50.133Z,12.30
2019-04-03T13:36:19.806Z,12.40
2019-04-03T13:38:50.436Z,12.60
2019-04-03T13:41:17.843Z,12.60
2019-04-03T13:46:16.007Z,12.70
2019-04-03T13:48:46.315Z,12.80
2019-04-03T13:51:15.062Z,13.00
2019-04-03T13:53:43.340Z,12.70
2019-04-03T13:56:12.698Z,12.50
2019-04-03T13:58:41.177Z,12.60
2019-04-03T14:01:10.399Z,12.80
2019-04-03T14:03:38.851Z,12.90
2019-04-03T14:06:07.743Z,12.90
2019-04-03T14:08:35.789Z,12.80
2019-04-03T14:16:01.699Z,11.70
2019-04-03T14:26:04.808Z,11.30
2019-04-03T14:28:26.695Z,11.40
2019-04-03T14:30:56.009Z,11.40
2019-04-03T14:33:25.519Z,11.40
2019-04-03T14:35:55.634Z,11.20
2019-04-03T14:38:23.870Z,11.00
2019-04-03T14:40:52.184Z,11.00
2019-04-03T14:43:22.103Z,11.00
2019-04-03T14:45:51.702Z,10.90
2019-04-03T14:48:20.712Z,10.80
2019-04-03T14:50:49.708Z,10.80
2019-04-03T14:53:20.266Z,10.60
2019-04-03T14:55:50.407Z,10.40
2019-04-03T14:58:19.981Z,10.30
2019-04-03T15:00:49.449Z,10.30
2019-04-03T15:03:18.103Z,10.20
2019-04-03T15:05:46.257Z,10.10
2019-04-03T15:08:14.357Z,10.10
2019-04-03T15:10:43.123Z,10.10
2019-04-03T15:13:13.721Z,9.90
2019-04-03T15:15:41.722Z,9.80
2019-04-03T15:18:11.331Z,8.00
2019-04-03T15:20:40.492Z,9.40
2019-04-03T15:23:13.214Z,9.30
2019-04-03T15:25:43.111Z,9.20
2019-04-03T15:28:12.980Z,9.10
2019-04-03T15:30:43.561Z,8.90
2019-04-03T15:33:15.173Z,8.70
2019-04-03T15:35:44.039Z,8.50
2019-04-03T15:38:14.280Z,8.50
2019-04-03T15:40:43.534Z,5.30
2019-04-03T15:43:14.530Z,8.30
2019-04-03T15:45:42.403Z,8.20
2019-04-03T15:53:08.996Z,7.90
2019-04-03T15:58:08.795Z,7.80
2019-04-03T16:00:36.959Z,7.70
2019-04-03T16:10:35.452Z,6.90
2019-04-03T16:15:33.506Z,5.60
2019-04-03T16:18:06.258Z,5.40
2019-04-03T16:20:33.804Z,5.30
2019-04-03T16:23:03.834Z,5.10
2019-04-03T16:25:32.543Z,5.00
2019-04-03T16:28:01.908Z,4.90
2019-04-03T16:30:31.237Z,4.90
2019-04-03T16:33:03.549Z,4.90
2019-04-03T16:35:30.386Z,4.90
2019-04-03T16:37:59.130Z,5.00
2019-04-03T16:40:31.271Z,5.00
2019-04-03T16:45:58.177Z,5.00
2019-04-03T16:48:26.668Z,5.00
2019-04-03T16:50:55.575Z,5.10
2019-04-03T16:53:25.388Z,5.10
2019-04-03T16:55:53.985Z,5.10
2019-04-03T16:58:25.257Z,5.10
2019-04-03T17:00:53.732Z,5.00
2019-04-03T17:03:22.102Z,5.00
2019-04-03T17:05:51.171Z,5.00
2019-04-03T17:08:19.483Z,5.00
2019-04-03T17:10:47.683Z,4.90
2019-04-03T17:13:16.520Z,5.80
2019-04-03T17:15:45.620Z,4.90
2019-04-03T17:18:16.387Z,4.80
2019-04-03T17:20:45.745Z,5.50
2019-04-03T17:23:15.899Z,4.80
2019-04-03T17:25:48.536Z,4.80
2019-04-03T17:28:15.317Z,4.80
2019-04-03T17:30:44.121Z,4.80
2019-04-03T17:33:12.428Z,4.80
2019-04-03T17:35:40.437Z,4.80
2019-04-03T17:38:08.731Z,4.80
2019-04-03T17:40:37.353Z,4.80
2019-04-03T17:50:32.622Z,5.00
2019-04-03T17:53:00.656Z,5.00
2019-04-03T17:55:29.648Z,4.90
2019-04-03T17:57:58.390Z,4.90
2019-04-03T18:00:27.106Z,4.90
2019-04-03T18:02:55.075Z,4.90
2019-04-03T18:05:25.643Z,4.90
2019-04-03T18:07:53.891Z,4.90
2019-04-03T18:10:22.428Z,5.00
2019-04-03T18:12:52.387Z,4.90
2019-04-03T18:15:21.598Z,4.90
2019-04-03T18:17:50.184Z,4.90
2019-04-03T18:20:19.265Z,5.00
2019-04-03T18:22:50.436Z,5.00
2019-04-03T18:25:17.971Z,5.00
2019-04-03T18:27:46.776Z,5.10
2019-04-03T18:30:16.739Z,5.00
2019-04-03T18:32:46.610Z,5.10
2019-04-03T18:35:15.779Z,5.10
2019-04-03T18:37:43.823Z,5.10
2019-04-03T18:40:15.143Z,5.10
2019-04-03T18:42:42.946Z,5.10
2019-04-03T18:45:24.034Z,5.20
2019-04-03T18:47:45.672Z,5.10
2019-04-03T18:50:12.398Z,5.10
2019-04-03T18:52:40.880Z,5.10
2019-04-03T18:55:09.443Z,5.10
2019-04-03T18:57:38.418Z,5.10
2019-04-03T19:00:08.034Z,5.20
2019-04-03T19:02:36.917Z,5.20
2019-04-03T19:05:09.037Z,5.20
2019-04-03T19:07:36.706Z,5.20
2019-04-03T19:10:07.419Z,5.20
2019-04-03T19:12:36.221Z,5.20
2019-04-03T19:15:05.866Z,5.20
2019-04-03T19:17:34.218Z,5.20
2019-04-03T19:20:10.265Z,5.20
2019-04-03T19:22:33.189Z,5.20
2019-04-03T19:25:01.602Z,5.30
2019-04-03T19:27:31.055Z,5.20
2019-04-03T19:30:00.353Z,5.20
2019-04-03T19:32:30.139Z,5.20
2019-04-03T19:34:59.016Z,5.20
2019-04-03T19:37:27.119Z,5.20
2019-04-03T19:39:55.429Z,5.20
2019-04-03T19:42:24.066Z,5.10
2019-04-03T19:44:52.881Z,5.20
2019-04-03T19:47:22.829Z,5.20
2019-04-03T19:49:52.167Z,5.10
2019-04-03T19:52:21.147Z,5.10
2019-04-03T19:54:51.529Z,5.10
2019-04-03T19:57:22.947Z,5.10
2019-04-03T20:02:21.052Z,5.20
2019-04-03T20:04:51.363Z,5.20
2019-04-03T20:07:19.951Z,5.20
2019-04-03T20:09:49.194Z,5.20
2019-04-03T20:12:18.449Z,5.20
2019-04-03T20:19:46.259Z,5.20
2019-04-03T20:22:15.288Z,5.20
2019-04-03T20:44:35.297Z,4.90
2019-04-03T20:47:03.254Z,4.90
2019-04-03T20:49:31.842Z,4.80
2019-04-03T20:51:59.822Z,4.70
2019-04-03T20:54:27.751Z,4.70
2019-04-03T20:56:58.056Z,4.60
2019-04-03T20:59:26.673Z,4.60
2019-04-03T21:10:14.285Z,4.80
2019-04-03T21:12:42.839Z,4.80
2019-04-03T21:15:13.382Z,4.80
2019-04-03T21:20:10.826Z,4.80
2019-04-03T21:22:39.457Z,4.80
2019-04-03T21:29:01.995Z,4.80
2019-04-03T21:31:30.953Z,4.80
2019-04-03T21:34:01.585Z,4.80
2019-04-03T21:36:30.175Z,4.80
2019-04-03T21:38:59.448Z,4.80
2019-04-03T21:44:58.966Z,4.80
2019-04-03T21:51:10.649Z,4.80
2019-04-03T21:56:58.094Z,4.90
2019-04-03T22:03:09.424Z,4.80
2019-04-03T22:09:11.109Z,4.90
2019-04-03T22:11:39.660Z,4.90
2019-04-03T22:14:10.680Z,4.90
2019-04-03T22:16:38.574Z,4.90
2019-04-03T22:19:07.320Z,4.90
2019-04-03T22:25:29.317Z,4.90
2019-04-03T22:27:58.917Z,4.90
2019-04-03T22:30:26.933Z,4.90
2019-04-03T22:32:55.833Z,4.90
2019-04-03T22:35:27.951Z,4.90
2019-04-03T22:37:56.887Z,6.50
2019-04-03T22:40:25.010Z,4.90
2019-04-03T22:46:11.967Z,4.80
2019-04-03T22:48:39.896Z,4.80
2019-04-03T22:51:07.861Z,4.80
2019-04-03T22:53:36.231Z,4.80
2019-04-03T22:59:35.676Z,4.80
2019-04-03T23:02:03.653Z,4.80
2019-04-03T23:04:32.585Z,4.70
2019-04-03T23:07:01.362Z,4.70
2019-04-03T23:12:48.398Z,4.60
2019-04-03T23:15:17.042Z,4.60
2019-04-03T23:17:45.477Z,4.40
2019-04-03T23:20:14.213Z,4.20
2019-04-03T23:22:43.461Z,4.30
2019-04-03T23:28:55.018Z,4.20
2019-04-03T23:34:43.351Z,4.10
2019-04-03T23:37:11.552Z,4.00
2019-04-03T23:39:41.430Z,4.00
2019-04-03T23:42:10.007Z,4.00
2019-04-03T23:44:38.043Z,4.00
2019-04-03T23:47:07.323Z,4.00
2019-04-03T23:52:49.489Z,3.90
2019-04-03T23:59:01.151Z,3.70
